createdAt,value
2018-12-26T00:00:32.431Z,2.45
2018-12-26T00:03:01.885Z,2.45
2018-12-26T00:05:31.253Z,2.48
2018-12-26T00:08:06.998Z,2.56
2018-12-26T00:10:36.385Z,2.42
2018-12-26T00:13:05.815Z,2.34
2018-12-26T00:18:09.982Z,2.24
2018-12-26T00:20:47.179Z,2.24
2018-12-26T00:23:19.616Z,2.17
2018-12-26T00:25:49.261Z,2.16
2018-12-26T00:28:23.003Z,2.16
2018-12-26T00:30:52.401Z,2.15
2018-12-26T00:33:25.136Z,2.15
2018-12-26T00:35:54.539Z,2.10
2018-12-26T00:38:29.862Z,2.12
2018-12-26T00:40:59.247Z,2.06
2018-12-26T00:43:28.629Z,2.06
2018-12-26T00:45:58.301Z,1.98
2018-12-26T00:48:30.443Z,1.98
2018-12-26T00:50:59.988Z,1.92
2018-12-26T00:53:35.969Z,1.92
2018-12-26T00:56:12.663Z,1.87
2018-12-26T00:58:42.428Z,1.91
2018-12-26T01:01:14.814Z,1.93
2018-12-26T01:03:44.187Z,1.90
2018-12-26T01:06:13.986Z,1.97
2018-12-26T01:08:43.341Z,1.83
2018-12-26T01:11:12.662Z,1.93
2018-12-26T01:13:42.675Z,1.88
2018-12-26T01:16:12.051Z,1.79
2018-12-26T01:18:41.405Z,1.75
2018-12-26T01:21:11.271Z,1.70
2018-12-26T01:23:40.673Z,1.82
2018-12-26T01:26:10.024Z,1.78
2018-12-26T01:28:42.762Z,1.78
2018-12-26T01:31:12.104Z,1.75
2018-12-26T01:33:41.425Z,1.70
2018-12-26T01:36:11.147Z,1.63
2018-12-26T01:38:40.464Z,1.75
2018-12-26T01:41:17.089Z,1.74
2018-12-26T01:43:46.940Z,1.64
2018-12-26T01:46:16.299Z,1.63
2018-12-26T01:48:45.655Z,1.47
2018-12-26T01:51:15.404Z,1.42
2018-12-26T01:53:46.514Z,1.49
2018-12-26T01:56:15.858Z,1.55
2018-12-26T01:58:53.977Z,1.63
2018-12-26T02:01:23.333Z,1.53
2018-12-26T02:03:52.688Z,1.53
2018-12-26T02:06:22.445Z,1.59
2018-12-26T02:08:59.255Z,1.60
2018-12-26T02:11:28.556Z,1.57
2018-12-26T02:14:01.034Z,1.69
2018-12-26T02:16:30.404Z,1.49
2018-12-26T02:18:59.716Z,1.49
2018-12-26T02:21:29.530Z,1.41
2018-12-26T02:24:07.706Z,1.34
2018-12-26T02:26:37.050Z,1.32
2018-12-26T02:29:06.460Z,1.24
2018-12-26T02:31:35.811Z,1.20
2018-12-26T02:34:08.542Z,1.07
2018-12-26T02:36:37.872Z,1.13
2018-12-26T02:39:17.548Z,0.91
2018-12-26T02:41:56.550Z,0.95
2018-12-26T02:44:26.642Z,1.01
2018-12-26T02:47:02.947Z,1.01
2018-12-26T02:49:32.630Z,1.11
2018-12-26T02:52:04.195Z,1.00
2018-12-26T02:54:33.656Z,0.99
2018-12-26T02:57:03.216Z,0.95
2018-12-26T02:59:39.204Z,0.89
2018-12-26T03:02:16.186Z,0.92
2018-12-26T03:04:50.592Z,0.98
2018-12-26T03:07:19.943Z,0.83
2018-12-26T03:09:52.088Z,0.81
2018-12-26T03:12:21.715Z,0.89
2018-12-26T03:14:53.848Z,0.93
2018-12-26T03:17:23.254Z,1.00
2018-12-26T03:19:52.902Z,1.02
2018-12-26T03:22:22.346Z,1.07
2018-12-26T03:24:53.830Z,1.03
2018-12-26T03:27:23.983Z,1.01
2018-12-26T03:29:56.833Z,1.11
2018-12-26T03:32:27.618Z,1.04
2018-12-26T03:35:00.238Z,1.03
2018-12-26T03:37:29.793Z,1.00
2018-12-26T03:39:59.403Z,1.07
2018-12-26T03:42:30.548Z,1.02
2018-12-26T03:45:00.912Z,1.09
2018-12-26T03:47:30.761Z,1.12
2018-12-26T03:50:00.186Z,1.03
2018-12-26T03:52:30.782Z,1.17
2018-12-26T03:55:00.174Z,1.09
2018-12-26T03:57:33.324Z,0.99
2018-12-26T04:00:10.360Z,0.92
2018-12-26T04:02:39.702Z,0.92
2018-12-26T04:05:12.249Z,1.04
2018-12-26T04:07:41.702Z,0.94
2018-12-26T04:10:11.031Z,0.93
2018-12-26T04:12:44.546Z,0.98
2018-12-26T04:15:13.852Z,1.00
2018-12-26T04:17:43.163Z,1.08
2018-12-26T04:20:12.767Z,1.04
2018-12-26T04:22:42.035Z,1.12
2018-12-26T04:25:11.580Z,1.16
2018-12-26T04:27:41.163Z,1.23
2018-12-26T04:30:18.225Z,1.31
2018-12-26T04:32:47.553Z,1.24
2018-12-26T04:35:17.156Z,1.29
2018-12-26T04:37:46.506Z,1.25
2018-12-26T04:40:18.886Z,1.24
2018-12-26T04:42:48.197Z,1.24
2018-12-26T04:45:17.580Z,1.19
2018-12-26T04:47:47.259Z,1.29
2018-12-26T04:50:19.580Z,1.22
2018-12-26T04:52:48.928Z,1.13
2018-12-26T04:55:18.542Z,1.12
2018-12-26T04:57:47.844Z,1.23
2018-12-26T05:00:17.314Z,1.20
2018-12-26T05:02:47.128Z,1.23
2018-12-26T05:05:16.475Z,1.17
2018-12-26T05:07:45.821Z,1.15
2018-12-26T05:10:15.462Z,1.21
2018-12-26T05:12:47.968Z,1.27
2018-12-26T05:15:17.378Z,1.25
2018-12-26T05:17:48.827Z,1.24
2018-12-26T05:20:18.150Z,1.24
2018-12-26T05:22:47.513Z,1.21
2018-12-26T05:25:17.225Z,1.20
2018-12-26T05:27:46.521Z,1.17
2018-12-26T05:30:23.023Z,1.23
2018-12-26T05:32:52.812Z,1.09
2018-12-26T05:35:22.096Z,1.08
2018-12-26T05:37:51.446Z,0.94
2018-12-26T05:40:20.761Z,0.93
2018-12-26T05:42:50.077Z,1.02
2018-12-26T05:45:19.715Z,1.02
2018-12-26T05:47:49.055Z,0.92
2018-12-26T05:50:18.392Z,1.03
2018-12-26T05:52:48.069Z,0.99
2018-12-26T05:55:17.396Z,1.07
2018-12-26T05:57:46.678Z,1.03
2018-12-26T06:00:16.345Z,1.11
2018-12-26T06:02:47.533Z,0.95
2018-12-26T06:05:16.868Z,1.03
2018-12-26T06:07:46.524Z,0.93
2018-12-26T06:10:15.862Z,0.99
2018-12-26T06:12:45.158Z,1.04
2018-12-26T06:15:17.863Z,0.96
2018-12-26T06:17:47.222Z,0.93
2018-12-26T06:20:16.550Z,1.00
2018-12-26T06:22:46.309Z,1.01
2018-12-26T06:25:23.187Z,0.96
2018-12-26T06:27:52.509Z,0.89
2018-12-26T06:30:21.834Z,0.90
2018-12-26T06:32:57.163Z,0.93
2018-12-26T06:35:26.803Z,0.93
2018-12-26T06:37:56.126Z,1.03
2018-12-26T06:40:25.692Z,0.90
2018-12-26T06:43:00.115Z,0.91
2018-12-26T06:45:29.945Z,0.98
2018-12-26T06:48:08.190Z,1.03
2018-12-26T06:50:43.393Z,1.08
2018-12-26T06:53:13.042Z,1.07
2018-12-26T06:55:44.858Z,0.99
2018-12-26T06:58:14.272Z,1.00
2018-12-26T07:00:43.623Z,1.17
2018-12-26T07:03:13.276Z,1.09
2018-12-26T07:05:42.638Z,1.10
2018-12-26T07:08:11.959Z,1.10
2018-12-26T07:10:42.584Z,1.08
2018-12-26T07:13:11.942Z,1.17
2018-12-26T07:15:41.233Z,1.20
2018-12-26T07:18:11.092Z,1.25
2018-12-26T07:20:40.541Z,1.27
2018-12-26T07:23:09.856Z,1.28
2018-12-26T07:25:39.541Z,1.17
2018-12-26T07:28:11.722Z,1.18
2018-12-26T07:30:41.037Z,1.19
2018-12-26T07:33:10.756Z,1.06
2018-12-26T07:35:40.170Z,1.02
2018-12-26T07:38:09.542Z,1.13
2018-12-26T07:40:39.194Z,1.20
2018-12-26T07:43:08.555Z,1.12
2018-12-26T07:45:42.767Z,1.06
2018-12-26T07:48:12.128Z,0.97
2018-12-26T07:50:41.452Z,0.88
2018-12-26T07:53:11.107Z,0.96
2018-12-26T07:55:42.050Z,0.99
2018-12-26T07:58:17.545Z,1.00
2018-12-26T08:00:42.698Z,1.08
2018-12-26T08:03:12.143Z,1.05
2018-12-26T08:05:44.300Z,1.04
2018-12-26T08:08:13.998Z,1.07
2018-12-26T08:10:43.333Z,1.21
2018-12-26T08:13:12.646Z,1.15
2018-12-26T08:15:42.285Z,1.14
2018-12-26T08:18:14.719Z,1.19
2018-12-26T08:20:44.115Z,1.21
2018-12-26T08:23:13.942Z,1.12
2018-12-26T08:25:43.485Z,1.19
2018-12-26T08:28:16.247Z,1.14
2018-12-26T08:30:46.109Z,1.19
2018-12-26T08:33:22.735Z,1.24
2018-12-26T08:35:52.105Z,1.24
2018-12-26T08:38:21.409Z,1.34
2018-12-26T08:40:50.937Z,1.25
2018-12-26T08:43:26.704Z,1.27
2018-12-26T08:45:56.078Z,1.28
2018-12-26T08:48:25.766Z,1.31
2018-12-26T08:51:05.600Z,1.38
2018-12-26T08:53:34.887Z,1.31
2018-12-26T08:56:07.648Z,1.27
2018-12-26T08:58:37.010Z,1.40
2018-12-26T09:01:06.356Z,1.47
2018-12-26T09:03:35.990Z,1.39
2018-12-26T09:06:08.379Z,1.40
2018-12-26T09:08:43.818Z,1.48
2018-12-26T09:11:13.211Z,1.57
2018-12-26T09:13:42.594Z,1.45
2018-12-26T09:16:12.210Z,1.41
2018-12-26T09:18:41.578Z,1.45
2018-12-26T09:21:10.892Z,1.45
2018-12-26T09:23:40.632Z,1.42
2018-12-26T09:26:11.526Z,1.50
2018-12-26T09:28:43.975Z,1.59
2018-12-26T09:31:12.190Z,1.58
2018-12-26T09:33:41.544Z,1.59
2018-12-26T09:36:10.890Z,1.55
2018-12-26T09:38:40.522Z,1.63
2018-12-26T09:41:12.902Z,1.63
2018-12-26T09:43:42.227Z,1.71
2018-12-26T09:46:11.847Z,1.66
2018-12-26T09:48:45.902Z,1.56
2018-12-26T09:51:15.237Z,1.75
2018-12-26T09:53:44.828Z,1.75
2018-12-26T09:56:14.185Z,1.73
2018-12-26T09:58:43.490Z,1.73
2018-12-26T10:01:20.862Z,1.80
2018-12-26T10:03:50.179Z,1.77
2018-12-26T10:06:24.023Z,1.77
2018-12-26T10:08:53.636Z,1.78
2018-12-26T10:11:22.976Z,1.85
2018-12-26T10:13:52.598Z,1.86
2018-12-26T10:16:21.890Z,1.80
2018-12-26T10:18:51.293Z,1.77
2018-12-26T10:21:20.609Z,1.66
2018-12-26T10:23:51.720Z,1.71
2018-12-26T10:26:21.402Z,1.75
2018-12-26T10:28:51.247Z,1.88
2018-12-26T10:31:20.558Z,1.89
2018-12-26T10:33:50.566Z,1.89
2018-12-26T10:36:19.886Z,1.92
2018-12-26T10:38:49.200Z,1.90
2018-12-26T10:41:18.911Z,1.83
2018-12-26T10:43:48.236Z,1.86
2018-12-26T10:46:17.587Z,1.86
2018-12-26T10:48:47.380Z,1.95
2018-12-26T10:51:16.719Z,1.92
2018-12-26T10:53:46.077Z,1.88
2018-12-26T10:56:15.742Z,1.85
2018-12-26T10:58:45.112Z,1.85
2018-12-26T11:01:16.228Z,1.86
2018-12-26T11:03:45.917Z,1.80
2018-12-26T11:06:21.577Z,1.80
2018-12-26T11:08:50.991Z,1.72
2018-12-26T11:11:29.823Z,1.71
2018-12-26T11:13:59.278Z,1.79
2018-12-26T11:16:31.759Z,1.85
2018-12-26T11:19:01.593Z,1.85
2018-12-26T11:21:30.939Z,1.83
2018-12-26T11:24:00.276Z,1.85
2018-12-26T11:26:29.611Z,1.92
2018-12-26T11:28:59.361Z,1.86
2018-12-26T11:31:28.867Z,1.89
2018-12-26T11:33:58.282Z,1.89
2018-12-26T11:36:27.636Z,1.93
2018-12-26T11:38:56.974Z,1.81
2018-12-26T11:41:26.654Z,1.91
2018-12-26T11:43:57.368Z,1.87
2018-12-26T11:46:26.708Z,1.85
2018-12-26T11:49:05.736Z,1.88
2018-12-26T11:51:35.028Z,1.88
2018-12-26T11:54:05.043Z,1.82
2018-12-26T11:56:34.411Z,1.92
2018-12-26T11:59:03.829Z,2.07
2018-12-26T12:01:33.443Z,2.07
2018-12-26T12:04:03.816Z,2.09
2018-12-26T12:06:33.198Z,1.92
2018-12-26T12:09:02.861Z,1.98
2018-12-26T12:11:38.260Z,1.97
2018-12-26T12:14:07.623Z,1.99
2018-12-26T12:16:36.957Z,1.94
2018-12-26T12:19:10.334Z,2.03
2018-12-26T12:21:39.982Z,1.98
2018-12-26T12:24:09.643Z,1.96
2018-12-26T12:26:39.017Z,2.03
2018-12-26T12:29:08.647Z,2.03
2018-12-26T12:31:41.090Z,2.08
2018-12-26T12:34:10.715Z,2.04
2018-12-26T12:36:40.381Z,2.08
2018-12-26T12:39:09.813Z,2.08
2018-12-26T12:41:40.879Z,2.08
2018-12-26T12:44:21.659Z,2.17
2018-12-26T12:46:44.894Z,2.19
2018-12-26T12:49:14.215Z,2.21
2018-12-26T12:51:43.850Z,2.24
2018-12-26T12:54:13.280Z,2.24
2018-12-26T12:56:45.461Z,2.16
2018-12-26T12:59:15.271Z,2.15
2018-12-26T13:01:44.619Z,2.13
2018-12-26T13:04:13.956Z,2.16
2018-12-26T13:06:43.686Z,2.00
2018-12-26T13:09:13.055Z,2.00
2018-12-26T13:11:42.370Z,2.02
2018-12-26T13:14:19.157Z,2.00
2018-12-26T13:16:48.513Z,2.05
2018-12-26T13:19:20.931Z,2.05
2018-12-26T13:21:50.286Z,1.98
2018-12-26T13:24:22.472Z,2.10
2018-12-26T13:26:52.095Z,2.10
2018-12-26T13:29:21.477Z,2.09
2018-12-26T13:31:50.799Z,2.16
2018-12-26T13:34:20.435Z,2.03
2018-12-26T13:36:52.213Z,2.02
2018-12-26T13:39:21.553Z,2.02
2018-12-26T13:41:51.200Z,2.09
2018-12-26T13:44:20.542Z,2.09
2018-12-26T13:46:50.061Z,2.10
2018-12-26T13:49:19.683Z,1.91
2018-12-26T13:51:49.205Z,1.89
2018-12-26T13:54:18.578Z,1.98
2018-12-26T13:56:57.158Z,1.97
2018-12-26T13:59:26.504Z,1.97
2018-12-26T14:01:56.150Z,2.05
2018-12-26T14:04:25.571Z,2.03
2018-12-26T14:06:54.881Z,1.92
2018-12-26T14:09:24.503Z,1.92
2018-12-26T14:11:53.872Z,1.89
2018-12-26T14:14:23.208Z,1.91
2018-12-26T14:16:52.959Z,1.91
2018-12-26T14:19:22.358Z,1.86
2018-12-26T14:21:53.155Z,1.84
2018-12-26T14:24:22.784Z,1.80
2018-12-26T14:26:55.198Z,1.87
2018-12-26T14:29:25.765Z,1.87
2018-12-26T14:31:56.975Z,1.89
2018-12-26T14:34:26.567Z,1.86
2018-12-26T14:36:56.186Z,1.83
2018-12-26T14:39:26.346Z,1.92
2018-12-26T14:41:56.195Z,1.92
2018-12-26T14:44:25.555Z,1.99
2018-12-26T14:46:55.591Z,1.91
2018-12-26T14:49:25.027Z,1.89
2018-12-26T14:52:12.528Z,1.68
2018-12-26T14:54:46.285Z,1.78
2018-12-26T14:57:15.925Z,1.70
2018-12-26T14:59:51.224Z,1.79
2018-12-26T15:02:20.523Z,1.76
2018-12-26T15:04:50.173Z,1.82
2018-12-26T15:07:19.537Z,1.82
2018-12-26T15:09:48.848Z,1.70
2018-12-26T15:12:18.569Z,1.63
2018-12-26T15:14:47.990Z,1.63
2018-12-26T15:17:21.707Z,1.68
2018-12-26T15:19:51.318Z,1.68
2018-12-26T15:22:20.639Z,1.69
2018-12-26T15:24:57.752Z,1.72
2018-12-26T15:27:27.087Z,1.74
2018-12-26T15:29:56.836Z,1.75
2018-12-26T15:32:26.597Z,1.66
2018-12-26T15:35:12.435Z,1.66
2018-12-26T15:37:42.424Z,1.63
2018-12-26T15:40:12.183Z,1.63
2018-12-26T15:42:41.531Z,1.72
2018-12-26T15:45:11.274Z,1.75
2018-12-26T15:47:40.618Z,1.65
2018-12-26T15:50:16.085Z,1.66
2018-12-26T15:52:45.453Z,1.51
2018-12-26T15:55:16.624Z,1.65
2018-12-26T15:57:46.310Z,1.65
2018-12-26T16:00:21.708Z,1.68
2018-12-26T16:02:51.157Z,1.74
2018-12-26T16:05:20.485Z,1.75
2018-12-26T16:07:49.801Z,1.68
2018-12-26T16:10:19.515Z,1.69
2018-12-26T16:12:48.841Z,1.74
2018-12-26T16:15:18.167Z,1.78
2018-12-26T16:17:53.704Z,1.64
2018-12-26T16:20:23.087Z,1.64
2018-12-26T16:22:52.443Z,1.60
2018-12-26T16:25:22.344Z,1.62
2018-12-26T16:27:51.930Z,1.67
2018-12-26T16:30:21.365Z,1.67
2018-12-26T16:32:51.371Z,1.68
2018-12-26T16:35:20.737Z,1.70
2018-12-26T16:38:10.710Z,1.72
2018-12-26T16:40:42.546Z,1.63
2018-12-26T16:43:21.282Z,1.63
2018-12-26T16:45:50.967Z,1.63
2018-12-26T16:48:20.342Z,1.67
2018-12-26T16:50:55.634Z,1.66
2018-12-26T16:53:32.616Z,1.66
2018-12-26T16:56:02.825Z,1.70
2018-12-26T16:58:32.227Z,1.76
2018-12-26T17:01:01.749Z,1.76
2018-12-26T17:03:31.206Z,1.72
2018-12-26T17:06:11.350Z,1.77
2018-12-26T17:08:34.805Z,1.73
2018-12-26T17:11:04.292Z,1.77
2018-12-26T17:13:33.938Z,1.72
2018-12-26T17:16:04.880Z,1.65
2018-12-26T17:18:34.237Z,1.77
2018-12-26T17:21:03.725Z,1.77
2018-12-26T17:23:33.106Z,1.76
2018-12-26T17:26:09.778Z,1.66
2018-12-26T17:28:39.378Z,1.66
2018-12-26T17:31:14.756Z,1.73
2018-12-26T17:33:44.620Z,1.65
2018-12-26T17:36:17.116Z,1.70
2018-12-26T17:38:46.463Z,1.59
2018-12-26T17:41:16.335Z,1.59
2018-12-26T17:43:46.829Z,1.55
2018-12-26T17:46:16.475Z,1.63
2018-12-26T17:48:45.917Z,1.56
2018-12-26T17:51:18.370Z,1.56
2018-12-26T17:54:31.514Z,1.57
2018-12-26T17:57:10.447Z,1.55
2018-12-26T17:59:55.478Z,1.55
2018-12-26T18:02:31.630Z,1.67
2018-12-26T18:05:01.429Z,1.67
2018-12-26T18:07:31.028Z,1.71
2018-12-26T18:10:00.407Z,1.71
2018-12-26T18:12:30.271Z,1.54
2018-12-26T18:14:59.610Z,1.55
2018-12-26T18:17:28.947Z,1.63
2018-12-26T18:19:58.753Z,1.57
2018-12-26T18:22:28.190Z,1.58
2018-12-26T18:25:00.237Z,1.45
2018-12-26T18:27:29.056Z,1.59
2018-12-26T18:29:58.497Z,1.43
2018-12-26T18:32:28.027Z,1.40
2018-12-26T18:35:01.119Z,1.39
2018-12-26T18:37:30.747Z,1.46
2018-12-26T18:40:09.526Z,1.51
2018-12-26T18:42:39.604Z,1.53
2018-12-26T18:45:10.135Z,1.55
2018-12-26T18:47:39.883Z,1.60
2018-12-26T18:50:11.565Z,1.59
2018-12-26T18:52:49.990Z,1.64
2018-12-26T18:55:19.994Z,1.55
2018-12-26T18:57:49.791Z,1.54
2018-12-26T19:00:19.540Z,1.66
2018-12-26T19:02:49.714Z,1.68
2018-12-26T19:05:19.731Z,1.66
2018-12-26T19:07:49.579Z,1.67
2018-12-26T19:10:19.677Z,1.66
2018-12-26T19:12:50.031Z,1.73
2018-12-26T19:15:19.919Z,1.72
2018-12-26T19:17:52.992Z,1.73
2018-12-26T19:20:25.935Z,1.80
2018-12-26T19:22:57.000Z,1.86
2018-12-26T19:25:26.889Z,1.87
2018-12-26T19:27:59.792Z,1.93
2018-12-26T19:30:29.564Z,1.87
2018-12-26T19:33:06.002Z,1.90
2018-12-26T19:35:35.742Z,2.03
2018-12-26T19:38:07.770Z,2.30
2018-12-26T19:40:37.987Z,2.18
2018-12-26T19:43:09.226Z,2.20
2018-12-26T19:45:40.402Z,2.12
2018-12-26T19:48:11.123Z,2.16
2018-12-26T19:50:44.881Z,2.16
2018-12-26T19:53:15.577Z,2.19
2018-12-26T19:55:45.378Z,2.19
2018-12-26T19:58:17.625Z,2.24
2018-12-26T20:00:48.069Z,2.26
2018-12-26T20:03:17.973Z,2.27
2018-12-26T20:05:47.838Z,2.25
2018-12-26T20:08:18.777Z,2.25
2018-12-26T20:10:48.815Z,2.24
2018-12-26T20:13:18.563Z,2.26
2018-12-26T20:15:48.981Z,2.25
2018-12-26T20:18:18.784Z,2.30
2018-12-26T20:20:48.699Z,2.34
2018-12-26T20:23:19.008Z,2.31
2018-12-26T20:25:51.647Z,2.32
2018-12-26T20:28:21.434Z,2.31
2018-12-26T20:31:03.690Z,2.31
2018-12-26T20:33:33.906Z,2.31
2018-12-26T20:36:04.952Z,2.40
2018-12-26T20:41:10.018Z,2.41
2018-12-26T20:43:40.105Z,2.41
2018-12-26T20:46:09.883Z,2.41
2018-12-26T20:48:40.020Z,2.39
2018-12-26T20:51:10.230Z,2.35
2018-12-26T20:53:49.990Z,2.25
2018-12-26T20:56:19.637Z,2.30
2018-12-26T20:58:50.134Z,2.36
2018-12-26T21:01:20.063Z,2.34
2018-12-26T21:03:50.301Z,2.38
2018-12-26T21:06:20.210Z,2.39
2018-12-26T21:08:56.222Z,2.36
2018-12-26T21:11:26.430Z,2.43
2018-12-26T21:13:59.403Z,2.44
2018-12-26T21:16:29.197Z,2.40
2018-12-26T21:19:00.245Z,2.41
2018-12-26T21:21:30.143Z,2.28
2018-12-26T21:24:00.037Z,2.28
2018-12-26T21:26:31.815Z,2.26
2018-12-26T21:29:01.829Z,2.31
2018-12-26T21:31:32.236Z,2.35
2018-12-26T21:34:04.463Z,2.35
2018-12-26T21:36:34.633Z,2.34
2018-12-26T21:39:06.088Z,2.39
2018-12-26T21:41:36.181Z,2.39
2018-12-26T21:44:08.869Z,2.30
2018-12-26T21:49:02.552Z,2.33
2018-12-26T21:51:32.427Z,2.35
2018-12-26T21:54:05.902Z,2.35
2018-12-26T21:56:35.717Z,2.50
2018-12-26T21:59:05.483Z,2.50
2018-12-26T22:01:35.533Z,2.48
2018-12-26T22:04:06.798Z,2.38
2018-12-26T22:06:36.741Z,2.38
2018-12-26T22:09:07.908Z,2.36
2018-12-26T22:11:37.632Z,2.37
2018-12-26T22:14:08.080Z,2.42
2018-12-26T22:16:37.918Z,2.50
2018-12-26T22:19:07.740Z,2.46
2018-12-26T22:21:37.667Z,2.44
2018-12-26T22:24:07.411Z,2.44
2018-12-26T22:26:43.246Z,2.47
2018-12-26T22:29:09.603Z,2.53
2018-12-26T22:31:39.417Z,2.53
2018-12-26T22:34:08.868Z,2.53
2018-12-26T22:36:38.465Z,2.53
2018-12-26T22:39:07.977Z,2.54
2018-12-26T22:41:37.324Z,2.56
2018-12-26T22:44:06.922Z,2.50
2018-12-26T22:46:36.278Z,2.53
2018-12-26T22:49:05.642Z,2.36
2018-12-26T22:51:42.038Z,2.43
2018-12-26T22:54:11.361Z,2.40
2018-12-26T22:56:41.156Z,2.36
2018-12-26T22:59:10.946Z,2.39
2018-12-26T23:01:40.349Z,2.39
2018-12-26T23:04:10.007Z,2.52
2018-12-26T23:06:39.349Z,2.36
2018-12-26T23:09:11.247Z,2.36
2018-12-26T23:11:40.839Z,2.51
2018-12-26T23:14:10.126Z,2.51
2018-12-26T23:16:39.460Z,2.48
2018-12-26T23:19:09.029Z,2.47
2018-12-26T23:21:38.421Z,2.57
2018-12-26T23:24:07.794Z,2.59
2018-12-26T23:26:37.410Z,2.55
2018-12-26T23:29:06.929Z,2.46
2018-12-26T23:31:36.403Z,2.29
2018-12-26T23:34:08.782Z,2.39
2018-12-26T23:36:38.430Z,2.46
2018-12-26T23:39:08.556Z,2.46
2018-12-26T23:41:56.061Z,2.52
2018-12-26T23:44:25.527Z,2.40
2018-12-26T23:46:55.401Z,2.40
2018-12-26T23:49:25.052Z,2.23
2018-12-26T23:51:57.769Z,2.26
2018-12-26T23:54:29.047Z,2.34
2018-12-26T23:56:58.864Z,2.26
2018-12-26T23:59:28.616Z,2.20
